ARQ YMLT-YMHB
Flight info
| Callsign | ARQ |
|---|---|
| Flight time | N/A |
| Altitude | 7000 |
| Route | LT W203 MORGO V33 TASUM |
| Aircraft | BE58/L-SDFGRY/C |
Departure
| Time | 2026-04-25 03:02 |
|---|---|
| Airport | Launceston Airport (YMLT) |
Arrival
| Time | N/A |
|---|---|
| Airport | Hobart International Airport (YMHB) |
| Time | Latitude | Longitude | Altitude | Speed | Heading |
|---|---|---|---|---|---|
| 2026-04-25 02:41 | -41.54973 | 147.21152 | 553 ft | 0 kts | 270° |
| 2026-04-25 02:59 | -41.54973 | 147.21150 | 553 ft | 0 kts | 286° |
| 2026-04-25 02:59 | -41.54966 | 147.21145 | 553 ft | 3 kts | 15° |
| 2026-04-25 02:59 | -41.54959 | 147.21173 | 556 ft | 6 kts | 100° |
| 2026-04-25 02:59 | -41.54959 | 147.21237 | 553 ft | 7 kts | 79° |
| 2026-04-25 03:00 | -41.54958 | 147.21283 | 553 ft | 2 kts | 125° |
| 2026-04-25 03:00 | -41.55016 | 147.21346 | 553 ft | 22 kts | 148° |
| 2026-04-25 03:00 | -41.55172 | 147.21473 | 552 ft | 24 kts | 153° |
| 2026-04-25 03:00 | -41.55220 | 147.21526 | 552 ft | 0 kts | 117° |
| 2026-04-25 03:01 | -41.55222 | 147.21533 | 552 ft | 6 kts | 106° |
| 2026-04-25 03:01 | -41.55190 | 147.21646 | 552 ft | 11 kts | 8° |
| 2026-04-25 03:01 | -41.55069 | 147.21576 | 553 ft | 55 kts | 327° |
| 2026-04-25 03:02 | -41.54491 | 147.21060 | 647 ft | 129 kts | 327° |
| 2026-04-25 03:02 | -41.53675 | 147.20312 | 1048 ft | 145 kts | 327° |
| 2026-04-25 03:02 | -41.52904 | 147.19595 | 2004 ft | 128 kts | 327° |
| 2026-04-25 03:02 | -41.52258 | 147.18875 | 2854 ft | 121 kts | 297° |
| 2026-04-25 03:03 | -41.52375 | 147.17813 | 3698 ft | 128 kts | 236° |
| 2026-04-25 03:03 | -41.53251 | 147.17476 | 4412 ft | 146 kts | 176° |
| 2026-04-25 03:03 | -41.54171 | 147.18206 | 4994 ft | 160 kts | 149° |
| 2026-04-25 03:03 | -41.55082 | 147.19072 | 5574 ft | 162 kts | 150° |
| 2026-04-25 03:04 | -41.55999 | 147.19943 | 6137 ft | 163 kts | 149° |
| 2026-04-25 03:04 | -41.56937 | 147.20843 | 6647 ft | 169 kts | 149° |
| 2026-04-25 03:04 | -41.57952 | 147.21665 | 6984 ft | 178 kts | 166° |
| 2026-04-25 03:05 | -41.60439 | 147.21502 | 7000 ft | 189 kts | 202° |
| 2026-04-25 03:05 | -41.61744 | 147.21149 | 6999 ft | 193 kts | 200° |
| 2026-04-25 03:05 | -41.63075 | 147.20831 | 6997 ft | 195 kts | 200° |
| 2026-04-25 03:05 | -41.64413 | 147.20515 | 7000 ft | 196 kts | 200° |
| 2026-04-25 03:06 | -41.65754 | 147.20196 | 6996 ft | 196 kts | 200° |
| 2026-04-25 03:06 | -41.67094 | 147.19873 | 6994 ft | 196 kts | 200° |
| 2026-04-25 03:06 | -41.68437 | 147.19552 | 6991 ft | 196 kts | 200° |
| 2026-04-25 03:06 | -41.69776 | 147.19233 | 6992 ft | 195 kts | 200° |
| 2026-04-25 03:07 | -41.71094 | 147.18915 | 6990 ft | 195 kts | 200° |
| 2026-04-25 03:07 | -41.72433 | 147.18593 | 6985 ft | 196 kts | 200° |
| 2026-04-25 03:07 | -41.73774 | 147.18271 | 6985 ft | 196 kts | 200° |
| 2026-04-25 03:07 | -41.75113 | 147.17947 | 6985 ft | 196 kts | 200° |
| 2026-04-25 03:08 | -41.76453 | 147.17629 | 6981 ft | 195 kts | 200° |
| 2026-04-25 03:08 | -41.77784 | 147.17307 | 6982 ft | 194 kts | 200° |
| 2026-04-25 03:08 | -41.79115 | 147.16988 | 6977 ft | 194 kts | 200° |